createdAt,value
2019-05-29T00:02:06.040Z,72.63
2019-05-29T00:07:10.145Z,72.53
2019-05-29T00:12:18.431Z,72.52
2019-05-29T00:17:19.362Z,72.43
2019-05-29T00:22:22.758Z,72.30
2019-05-29T00:27:26.501Z,72.17
2019-05-29T00:32:30.224Z,72.10
2019-05-29T00:37:33.626Z,72.32
2019-05-29T00:42:37.375Z,72.73
2019-05-29T00:47:41.079Z,73.08
2019-05-29T00:52:44.499Z,73.23
2019-05-29T00:57:48.216Z,73.25
2019-05-29T01:02:51.973Z,73.56
2019-05-29T01:07:55.658Z,73.70
2019-05-29T01:12:59.058Z,73.86
2019-05-29T01:18:02.468Z,73.89
2019-05-29T01:23:06.212Z,73.72
2019-05-29T01:28:09.608Z,73.62
2019-05-29T01:33:16.844Z,73.69
2019-05-29T01:38:19.263Z,73.63
2019-05-29T01:43:23.555Z,73.72
2019-05-29T01:48:27.815Z,73.73
2019-05-29T01:53:31.349Z,73.70
2019-05-29T01:58:34.747Z,73.49
2019-05-29T02:03:38.448Z,73.41
2019-05-29T02:08:41.841Z,73.20
2019-05-29T02:13:45.580Z,73.04
2019-05-29T02:18:49.599Z,72.90
2019-05-29T02:23:53.329Z,72.99
2019-05-29T02:28:56.750Z,72.97
2019-05-29T02:34:00.150Z,73.13
2019-05-29T02:39:05.385Z,73.15
2019-05-29T02:44:08.801Z,73.11
2019-05-29T02:49:12.694Z,73.17
2019-05-29T02:54:16.091Z,73.15
2019-05-29T02:59:21.021Z,73.11
2019-05-29T03:04:26.221Z,73.04
2019-05-29T03:09:30.689Z,72.98
2019-05-29T03:14:34.842Z,73.09
2019-05-29T03:19:38.354Z,73.13
2019-05-29T03:24:41.773Z,73.25
2019-05-29T03:29:45.174Z,73.39
2019-05-29T03:34:48.648Z,73.37
2019-05-29T03:39:52.432Z,73.41
2019-05-29T03:44:55.923Z,73.37
2019-05-29T03:49:59.672Z,73.47
2019-05-29T03:55:03.853Z,73.52
2019-05-29T04:00:07.908Z,73.73
2019-05-29T04:05:11.653Z,73.95
2019-05-29T04:10:16.598Z,74.23
2019-05-29T04:15:20.000Z,74.35
2019-05-29T04:20:23.467Z,74.40
2019-05-29T04:25:33.155Z,74.26
2019-05-29T04:30:38.635Z,74.10
2019-05-29T04:35:42.363Z,73.91
2019-05-29T04:40:46.084Z,73.93
2019-05-29T04:45:49.646Z,73.97
2019-05-29T04:50:53.044Z,73.84
2019-05-29T04:55:56.711Z,73.66
2019-05-29T05:01:00.115Z,73.48
2019-05-29T05:06:03.785Z,73.37
2019-05-29T05:11:09.126Z,73.24
2019-05-29T05:16:12.533Z,73.38
2019-05-29T05:21:16.261Z,73.54
2019-05-29T05:26:19.984Z,73.56
2019-05-29T05:31:23.724Z,73.69
2019-05-29T05:36:27.441Z,73.98
2019-05-29T05:41:30.895Z,73.34
2019-05-29T05:46:35.056Z,72.74
2019-05-29T05:51:42.695Z,72.89
2019-05-29T05:56:43.582Z,73.57
2019-05-29T06:01:47.278Z,73.26
2019-05-29T06:06:50.926Z,72.75
2019-05-29T06:11:54.345Z,72.61
2019-05-29T06:16:57.741Z,71.53
2019-05-29T06:22:01.431Z,71.19
2019-05-29T06:27:04.919Z,71.20
2019-05-29T06:32:08.429Z,71.04
2019-05-29T06:37:11.903Z,70.63
2019-05-29T06:42:15.424Z,71.06
2019-05-29T06:47:18.841Z,71.62
2019-05-29T06:52:22.247Z,70.37
2019-05-29T06:57:26.013Z,70.47
2019-05-29T07:02:31.750Z,69.91
2019-05-29T07:07:35.952Z,69.62
2019-05-29T07:12:40.354Z,69.63
2019-05-29T07:17:44.486Z,69.45
2019-05-29T07:22:48.154Z,69.96
2019-05-29T07:27:51.576Z,68.69
2019-05-29T07:32:58.324Z,69.46
2019-05-29T07:38:00.750Z,69.46
2019-05-29T07:43:04.463Z,69.83
2019-05-29T07:48:07.861Z,68.94
2019-05-29T07:53:11.605Z,68.71
2019-05-29T07:58:15.031Z,68.25
2019-05-29T08:03:18.455Z,67.46
2019-05-29T08:08:22.107Z,66.71
2019-05-29T08:13:25.503Z,67.34
2019-05-29T08:18:28.918Z,67.69
2019-05-29T08:23:32.599Z,67.12
2019-05-29T08:28:36.045Z,66.68
2019-05-29T08:33:40.790Z,67.67
2019-05-29T08:38:45.727Z,66.25
2019-05-29T08:43:50.794Z,65.82
2019-05-29T08:48:54.427Z,66.39
2019-05-29T08:53:57.825Z,65.63
2019-05-29T08:59:01.243Z,65.57
2019-05-29T09:04:05.068Z,65.25
2019-05-29T09:09:08.471Z,64.27
2019-05-29T09:14:11.865Z,64.00
2019-05-29T09:19:16.353Z,64.00
2019-05-29T09:24:20.932Z,64.95
2019-05-29T09:29:25.021Z,63.46
2019-05-29T09:34:28.413Z,62.93
2019-05-29T09:39:31.826Z,62.25
2019-05-29T09:44:39.369Z,62.25
2019-05-29T09:49:40.379Z,61.84
2019-05-29T09:54:43.770Z,61.96
2019-05-29T09:59:47.357Z,60.91
2019-05-29T10:04:50.756Z,59.73
2019-05-29T10:09:55.624Z,59.46
2019-05-29T10:15:00.960Z,60.20
2019-05-29T10:20:08.123Z,60.46
2019-05-29T10:25:12.357Z,61.02
2019-05-29T10:30:16.313Z,60.18
2019-05-29T10:35:20.201Z,60.69
2019-05-29T10:40:23.655Z,60.06
2019-05-29T10:45:27.134Z,60.02
2019-05-29T10:50:30.539Z,61.83
2019-05-29T10:55:34.264Z,62.79
2019-05-29T11:00:39.411Z,63.74
2019-05-29T11:05:43.226Z,66.19
2019-05-29T11:10:47.903Z,66.23
2019-05-29T11:15:52.763Z,65.34
2019-05-29T11:20:57.615Z,65.86
2019-05-29T11:26:01.414Z,67.22
2019-05-29T11:31:06.114Z,67.80
2019-05-29T11:36:13.391Z,67.93
2019-05-29T11:41:25.656Z,68.72
2019-05-29T11:46:20.656Z,68.72
2019-05-29T11:51:24.055Z,69.31
2019-05-29T11:56:27.462Z,69.74
2019-05-29T12:01:48.569Z,70.18
2019-05-29T12:06:36.305Z,70.78
2019-05-29T12:11:40.028Z,71.12
2019-05-29T12:16:43.684Z,71.46
2019-05-29T12:21:47.472Z,71.91
2019-05-29T12:26:52.305Z,72.28
2019-05-29T12:31:57.062Z,72.28
2019-05-29T12:37:01.860Z,72.20
2019-05-29T12:42:06.044Z,73.22
2019-05-29T12:47:10.081Z,73.22
2019-05-29T12:52:13.805Z,71.19
2019-05-29T12:57:17.212Z,70.52
2019-05-29T13:02:20.616Z,69.73
2019-05-29T13:07:24.024Z,69.41
2019-05-29T13:12:27.422Z,69.12
2019-05-29T13:17:31.178Z,68.03
2019-05-29T13:22:35.000Z,69.24
2019-05-29T13:27:38.387Z,68.43
2019-05-29T13:32:42.683Z,66.62
2019-05-29T13:37:46.319Z,67.11
2019-05-29T13:42:49.740Z,67.23
2019-05-29T13:47:53.145Z,67.16
2019-05-29T13:52:57.149Z,64.83
2019-05-29T13:58:01.646Z,66.76
2019-05-29T14:03:06.999Z,65.06
2019-05-29T14:08:11.339Z,63.31
2019-05-29T14:13:14.734Z,63.59
2019-05-29T14:18:18.489Z,62.98
2019-05-29T14:23:22.128Z,63.27
2019-05-29T14:28:25.803Z,62.74
2019-05-29T14:33:29.534Z,62.43
2019-05-29T14:38:32.926Z,59.89
2019-05-29T14:43:36.342Z,60.20
2019-05-29T14:48:39.905Z,61.95
2019-05-29T14:53:43.323Z,60.81
2019-05-29T14:58:46.737Z,58.07
2019-05-29T15:03:50.434Z,58.60
2019-05-29T15:08:54.146Z,57.90
2019-05-29T15:13:57.886Z,58.31
2019-05-29T15:19:01.609Z,58.03
2019-05-29T15:24:05.759Z,57.78
2019-05-29T15:29:12.704Z,56.17
2019-05-29T15:34:14.736Z,57.65
2019-05-29T15:39:18.146Z,55.03
2019-05-29T15:44:21.838Z,54.33
2019-05-29T15:49:25.570Z,55.96
2019-05-29T15:54:29.001Z,57.27
2019-05-29T15:59:32.407Z,57.46
2019-05-29T16:04:35.804Z,57.36
2019-05-29T16:09:39.495Z,56.31
2019-05-29T16:14:42.892Z,56.71
2019-05-29T16:19:46.547Z,57.74
2019-05-29T16:24:50.293Z,56.18
2019-05-29T16:29:54.015Z,56.16
2019-05-29T16:34:57.412Z,57.03
2019-05-29T16:40:01.136Z,56.48
2019-05-29T16:45:08.235Z,56.38
2019-05-29T16:50:13.060Z,55.98
2019-05-29T16:55:17.303Z,55.65
2019-05-29T17:00:21.812Z,56.93
2019-05-29T17:05:25.795Z,55.92
2019-05-29T17:10:36.620Z,55.19
2019-05-29T17:15:40.289Z,56.05
2019-05-29T17:20:47.416Z,56.33
2019-05-29T17:25:50.810Z,56.33
2019-05-29T17:30:54.521Z,57.63
2019-05-29T17:35:57.923Z,56.89
2019-05-29T17:41:01.335Z,57.09
2019-05-29T17:46:04.733Z,57.30
2019-05-29T17:51:08.126Z,58.09
2019-05-29T17:56:25.378Z,58.75
2019-05-29T18:01:18.137Z,59.85
2019-05-29T18:06:22.436Z,59.00
2019-05-29T18:11:27.567Z,59.42
2019-05-29T18:16:31.415Z,58.63
2019-05-29T18:21:34.815Z,57.97
2019-05-29T18:26:46.808Z,58.62
2019-05-29T18:31:43.389Z,59.46
2019-05-29T18:36:46.787Z,60.21
2019-05-29T18:41:50.188Z,61.41
2019-05-29T18:46:53.614Z,62.25
2019-05-29T18:52:00.294Z,63.41
2019-05-29T18:57:14.373Z,65.14
2019-05-29T19:02:08.074Z,65.71
2019-05-29T19:07:11.470Z,65.71
2019-05-29T19:12:15.198Z,66.16
2019-05-29T19:17:18.615Z,66.41
2019-05-29T19:22:22.316Z,66.57
2019-05-29T19:27:36.970Z,67.00
2019-05-29T19:32:32.277Z,67.29
2019-05-29T19:37:36.575Z,67.48
2019-05-29T19:42:40.307Z,67.33
2019-05-29T19:47:43.950Z,67.66
2019-05-29T19:52:47.341Z,68.03
2019-05-29T19:57:56.213Z,68.34
2019-05-29T20:02:56.419Z,68.35
2019-05-29T20:08:00.131Z,68.53
2019-05-29T20:13:03.543Z,68.89
2019-05-29T20:18:06.973Z,69.08
2019-05-29T20:23:10.367Z,69.13
2019-05-29T20:28:14.090Z,69.16
2019-05-29T20:33:17.509Z,69.37
2019-05-29T20:38:20.924Z,69.37
2019-05-29T20:43:24.642Z,69.41
2019-05-29T20:48:28.392Z,69.75
2019-05-29T20:53:33.303Z,70.12
2019-05-29T20:58:37.754Z,70.24
2019-05-29T21:03:42.486Z,70.14
2019-05-29T21:08:46.019Z,70.14
2019-05-29T21:13:49.415Z,70.04
2019-05-29T21:18:52.812Z,70.04
2019-05-29T21:23:56.207Z,70.04
2019-05-29T21:28:59.883Z,70.17
2019-05-29T21:34:03.314Z,70.21
2019-05-29T21:39:09.153Z,70.27
2019-05-29T21:44:12.890Z,70.36
2019-05-29T21:49:16.287Z,70.31
2019-05-29T21:54:20.014Z,70.44
2019-05-29T21:59:23.435Z,70.52
2019-05-29T22:04:26.835Z,70.23
2019-05-29T22:09:30.247Z,70.32
2019-05-29T22:14:33.978Z,70.59
2019-05-29T22:19:37.699Z,70.83
2019-05-29T22:24:41.347Z,70.85
2019-05-29T22:29:44.763Z,70.87
2019-05-29T22:34:48.183Z,71.16
2019-05-29T22:39:51.577Z,71.28
2019-05-29T22:44:55.635Z,71.42
2019-05-29T22:49:59.886Z,71.48
2019-05-29T22:55:03.873Z,71.52
2019-05-29T23:00:08.096Z,71.49
2019-05-29T23:05:11.653Z,71.48
2019-05-29T23:10:15.625Z,71.47
2019-05-29T23:15:19.553Z,71.47
2019-05-29T23:20:22.951Z,71.47
2019-05-29T23:25:26.586Z,71.31
2019-05-29T23:30:30.794Z,71.27
2019-05-29T23:35:34.644Z,71.11
2019-05-29T23:40:38.049Z,71.07
2019-05-29T23:45:41.435Z,71.03
2019-05-29T23:50:45.091Z,71.22
2019-05-29T23:55:48.825Z,71.23
